sensor_id;sensor_type;location;lat;lon;timestamp;temperature;humidity
58309;DHT22;44117;57.142;24.826;2022-10-31T00:01:21;1.70;99.90
58309;DHT22;44117;57.142;24.826;2022-10-31T00:03:48;1.70;99.90
58309;DHT22;44117;57.142;24.826;2022-10-31T00:06:16;1.60;99.90
58309;DHT22;44117;57.142;24.826;2022-10-31T00:08:47;1.60;99.90
58309;DHT22;44117;57.142;24.826;2022-10-31T00:11:14;1.50;99.90
58309;DHT22;44117;57.142;24.826;2022-10-31T00:13:42;1.40;99.90
58309;DHT22;44117;57.142;24.826;2022-10-31T00:16:17;1.30;99.90
58309;DHT22;44117;57.142;24.826;2022-10-31T00:18:51;1.20;99.90
58309;DHT22;44117;57.142;24.826;2022-10-31T00:21:19;1.20;99.90
58309;DHT22;44117;57.142;24.826;2022-10-31T00:23:47;1.10;99.90
58309;DHT22;44117;57.142;24.826;2022-10-31T00:26:15;1.00;99.90
58309;DHT22;44117;57.142;24.826;2022-10-31T00:28:42;1.00;99.90
58309;DHT22;44117;57.142;24.826;2022-10-31T00:31:11;1.10;99.90
58309;DHT22;44117;57.142;24.826;2022-10-31T00:33:40;1.10;99.90
58309;DHT22;44117;57.142;24.826;2022-10-31T00:36:10;1.30;99.90
58309;DHT22;44117;57.142;24.826;2022-10-31T00:38:38;1.30;99.90
58309;DHT22;44117;57.142;24.826;2022-10-31T00:41:05;1.20;99.90
58309;DHT22;44117;57.142;24.826;2022-10-31T00:43:33;1.20;99.90
58309;DHT22;44117;57.142;24.826;2022-10-31T00:46:00;1.10;99.90
58309;DHT22;44117;57.142;24.826;2022-10-31T00:48:27;1.10;99.90
58309;DHT22;44117;57.142;24.826;2022-10-31T00:50:54;1.10;99.90
58309;DHT22;44117;57.142;24.826;2022-10-31T00:53:22;1.10;99.90
58309;DHT22;44117;57.142;24.826;2022-10-31T00:55:49;1.00;99.90
58309;DHT22;44117;57.142;24.826;2022-10-31T00:58:16;1.00;99.90
58309;DHT22;44117;57.142;24.826;2022-10-31T01:00:43;1.00;99.90
58309;DHT22;44117;57.142;24.826;2022-10-31T01:03:16;1.00;99.90
58309;DHT22;44117;57.142;24.826;2022-10-31T01:05:43;1.00;99.90
58309;DHT22;44117;57.142;24.826;2022-10-31T01:08:10;1.00;99.90
58309;DHT22;44117;57.142;24.826;2022-10-31T01:10:38;1.10;99.90
58309;DHT22;44117;57.142;24.826;2022-10-31T01:13:05;1.30;99.90
58309;DHT22;44117;57.142;24.826;2022-10-31T01:15:32;1.30;99.90
58309;DHT22;44117;57.142;24.826;2022-10-31T01:17:59;1.40;99.90
58309;DHT22;44117;57.142;24.826;2022-10-31T01:20:27;1.40;99.90
58309;DHT22;44117;57.142;24.826;2022-10-31T01:22:54;1.50;99.90
58309;DHT22;44117;57.142;24.826;2022-10-31T01:25:21;1.40;99.90
58309;DHT22;44117;57.142;24.826;2022-10-31T01:27:49;1.30;99.90
58309;DHT22;44117;57.142;24.826;2022-10-31T01:30:17;1.20;99.90
58309;DHT22;44117;57.142;24.826;2022-10-31T01:32:44;1.10;99.90
58309;DHT22;44117;57.142;24.826;2022-10-31T01:35:11;0.90;99.90
58309;DHT22;44117;57.142;24.826;2022-10-31T01:37:38;0.90;99.90
58309;DHT22;44117;57.142;24.826;2022-10-31T01:40:06;0.90;99.90
58309;DHT22;44117;57.142;24.826;2022-10-31T01:42:33;0.80;99.90
58309;DHT22;44117;57.142;24.826;2022-10-31T01:45:02;0.80;99.90
58309;DHT22;44117;57.142;24.826;2022-10-31T01:47:41;0.90;99.90
58309;DHT22;44117;57.142;24.826;2022-10-31T01:50:41;0.90;99.90
58309;DHT22;44117;57.142;24.826;2022-10-31T01:53:10;0.80;99.90
58309;DHT22;44117;57.142;24.826;2022-10-31T01:55:40;1.00;99.90
58309;DHT22;44117;57.142;24.826;2022-10-31T01:58:14;1.10;99.90
58309;DHT22;44117;57.142;24.826;2022-10-31T02:00:45;1.10;99.90
58309;DHT22;44117;57.142;24.826;2022-10-31T02:03:13;1.20;99.90
58309;DHT22;44117;57.142;24.826;2022-10-31T02:05:41;1.20;99.90
58309;DHT22;44117;57.142;24.826;2022-10-31T02:10:44;1.40;99.90
58309;DHT22;44117;57.142;24.826;2022-10-31T02:13:12;1.50;99.90
58309;DHT22;44117;57.142;24.826;2022-10-31T02:15:41;1.60;99.90
58309;DHT22;44117;57.142;24.826;2022-10-31T02:18:09;1.50;99.90
58309;DHT22;44117;57.142;24.826;2022-10-31T02:21:03;1.40;99.90
58309;DHT22;44117;57.142;24.826;2022-10-31T02:24:00;1.40;99.90
58309;DHT22;44117;57.142;24.826;2022-10-31T02:29:52;1.30;99.90
58309;DHT22;44117;57.142;24.826;2022-10-31T02:35:39;1.40;99.90
58309;DHT22;44117;57.142;24.826;2022-10-31T02:38:25;1.30;99.90
58309;DHT22;44117;57.142;24.826;2022-10-31T02:41:18;1.40;99.90
58309;DHT22;44117;57.142;24.826;2022-10-31T02:49:25;1.40;99.90
58309;DHT22;44117;57.142;24.826;2022-10-31T02:51:53;1.30;99.90
58309;DHT22;44117;57.142;24.826;2022-10-31T02:54:25;1.30;99.90
58309;DHT22;44117;57.142;24.826;2022-10-31T02:57:04;1.50;99.90
58309;DHT22;44117;57.142;24.826;2022-10-31T02:59:36;1.60;99.90
58309;DHT22;44117;57.142;24.826;2022-10-31T03:02:20;1.60;99.90
58309;DHT22;44117;57.142;24.826;2022-10-31T03:04:57;1.40;99.90
58309;DHT22;44117;57.142;24.826;2022-10-31T03:07:41;1.40;99.90
58309;DHT22;44117;57.142;24.826;2022-10-31T03:10:35;1.30;99.90
58309;DHT22;44117;57.142;24.826;2022-10-31T03:15:33;1.30;99.90
58309;DHT22;44117;57.142;24.826;2022-10-31T03:18:10;1.40;99.90
58309;DHT22;44117;57.142;24.826;2022-10-31T03:20:56;1.40;99.90
58309;DHT22;44117;57.142;24.826;2022-10-31T03:23:27;1.40;99.90
58309;DHT22;44117;57.142;24.826;2022-10-31T03:25:55;1.40;99.90
58309;DHT22;44117;57.142;24.826;2022-10-31T03:28:28;1.20;99.90
58309;DHT22;44117;57.142;24.826;2022-10-31T03:30:56;1.10;99.90
58309;DHT22;44117;57.142;24.826;2022-10-31T03:33:31;1.00;99.90
58309;DHT22;44117;57.142;24.826;2022-10-31T03:36:02;1.00;99.90
58309;DHT22;44117;57.142;24.826;2022-10-31T03:38:32;1.10;99.90
58309;DHT22;44117;57.142;24.826;2022-10-31T03:41:02;1.20;99.90
58309;DHT22;44117;57.142;24.826;2022-10-31T03:43:35;1.20;99.90
58309;DHT22;44117;57.142;24.826;2022-10-31T03:46:04;1.10;99.90
58309;DHT22;44117;57.142;24.826;2022-10-31T03:48:32;1.10;99.90
58309;DHT22;44117;57.142;24.826;2022-10-31T03:51:08;1.00;99.90
58309;DHT22;44117;57.142;24.826;2022-10-31T03:56:31;1.10;99.90
58309;DHT22;44117;57.142;24.826;2022-10-31T03:59:07;1.50;99.90
58309;DHT22;44117;57.142;24.826;2022-10-31T04:01:40;1.60;99.90
58309;DHT22;44117;57.142;24.826;2022-10-31T04:04:09;1.60;99.90
58309;DHT22;44117;57.142;24.826;2022-10-31T04:06:40;1.50;99.90
58309;DHT22;44117;57.142;24.826;2022-10-31T04:09:09;1.40;99.90
58309;DHT22;44117;57.142;24.826;2022-10-31T04:11:40;1.40;99.90
58309;DHT22;44117;57.142;24.826;2022-10-31T04:14:11;1.50;99.90
58309;DHT22;44117;57.142;24.826;2022-10-31T04:16:41;1.40;99.90
58309;DHT22;44117;57.142;24.826;2022-10-31T04:19:10;1.30;99.90
58309;DHT22;44117;57.142;24.826;2022-10-31T04:21:38;1.20;99.90
58309;DHT22;44117;57.142;24.826;2022-10-31T04:24:06;1.10;99.90
58309;DHT22;44117;57.142;24.826;2022-10-31T04:26:33;1.10;99.90
58309;DHT22;44117;57.142;24.826;2022-10-31T04:29:00;1.10;99.90
58309;DHT22;44117;57.142;24.826;2022-10-31T04:31:27;1.00;99.90
58309;DHT22;44117;57.142;24.826;2022-10-31T04:33:55;1.00;99.90
58309;DHT22;44117;57.142;24.826;2022-10-31T04:36:22;0.90;99.90
58309;DHT22;44117;57.142;24.826;2022-10-31T04:38:49;0.90;99.90
58309;DHT22;44117;57.142;24.826;2022-10-31T04:41:16;0.90;99.90
58309;DHT22;44117;57.142;24.826;2022-10-31T04:43:43;1.00;99.90
58309;DHT22;44117;57.142;24.826;2022-10-31T04:46:10;1.10;99.90
58309;DHT22;44117;57.142;24.826;2022-10-31T04:48:37;1.10;99.90
58309;DHT22;44117;57.142;24.826;2022-10-31T04:51:05;1.20;99.90
58309;DHT22;44117;57.142;24.826;2022-10-31T04:53:32;1.30;99.90
58309;DHT22;44117;57.142;24.826;2022-10-31T04:55:59;1.30;99.90
58309;DHT22;44117;57.142;24.826;2022-10-31T04:58:28;1.30;99.90
58309;DHT22;44117;57.142;24.826;2022-10-31T05:00:55;1.10;99.90
58309;DHT22;44117;57.142;24.826;2022-10-31T05:03:23;1.10;99.90
58309;DHT22;44117;57.142;24.826;2022-10-31T05:05:50;1.00;99.90
58309;DHT22;44117;57.142;24.826;2022-10-31T05:08:17;0.90;99.90
58309;DHT22;44117;57.142;24.826;2022-10-31T05:10:45;0.90;99.90
58309;DHT22;44117;57.142;24.826;2022-10-31T05:13:12;0.70;99.90
58309;DHT22;44117;57.142;24.826;2022-10-31T05:15:39;0.70;99.90
58309;DHT22;44117;57.142;24.826;2022-10-31T05:18:06;0.70;99.90
58309;DHT22;44117;57.142;24.826;2022-10-31T05:20:33;0.70;99.90
58309;DHT22;44117;57.142;24.826;2022-10-31T05:23:00;0.70;99.90
58309;DHT22;44117;57.142;24.826;2022-10-31T05:25:28;0.70;99.90
58309;DHT22;44117;57.142;24.826;2022-10-31T05:27:57;0.80;99.90
58309;DHT22;44117;57.142;24.826;2022-10-31T05:30:27;1.20;99.90
58309;DHT22;44117;57.142;24.826;2022-10-31T05:32:55;1.10;99.90
58309;DHT22;44117;57.142;24.826;2022-10-31T05:35:25;1.10;99.90
58309;DHT22;44117;57.142;24.826;2022-10-31T05:37:52;1.10;99.90
58309;DHT22;44117;57.142;24.826;2022-10-31T05:40:20;1.00;99.90
58309;DHT22;44117;57.142;24.826;2022-10-31T05:42:51;1.00;99.90
58309;DHT22;44117;57.142;24.826;2022-10-31T05:45:19;1.20;99.90
58309;DHT22;44117;57.142;24.826;2022-10-31T05:48:00;1.40;99.90
58309;DHT22;44117;57.142;24.826;2022-10-31T05:50:30;1.60;99.90
58309;DHT22;44117;57.142;24.826;2022-10-31T05:53:03;1.80;99.90
58309;DHT22;44117;57.142;24.826;2022-10-31T05:55:31;1.80;99.90
58309;DHT22;44117;57.142;24.826;2022-10-31T05:57:58;1.80;99.90
58309;DHT22;44117;57.142;24.826;2022-10-31T06:00:27;1.70;99.90
58309;DHT22;44117;57.142;24.826;2022-10-31T06:03:01;1.60;99.90
58309;DHT22;44117;57.142;24.826;2022-10-31T06:05:29;1.60;99.90
58309;DHT22;44117;57.142;24.826;2022-10-31T06:07:57;1.50;99.90
58309;DHT22;44117;57.142;24.826;2022-10-31T06:10:26;1.60;99.90
58309;DHT22;44117;57.142;24.826;2022-10-31T06:12:53;1.70;99.90
58309;DHT22;44117;57.142;24.826;2022-10-31T06:15:21;2.00;99.90
58309;DHT22;44117;57.142;24.826;2022-10-31T06:18:04;2.10;99.90
58309;DHT22;44117;57.142;24.826;2022-10-31T06:20:32;2.10;99.90
58309;DHT22;44117;57.142;24.826;2022-10-31T06:23:00;2.10;99.90
58309;DHT22;44117;57.142;24.826;2022-10-31T06:25:28;2.20;99.90
58309;DHT22;44117;57.142;24.826;2022-10-31T06:27:56;2.20;99.90
58309;DHT22;44117;57.142;24.826;2022-10-31T06:30:24;2.20;99.90
58309;DHT22;44117;57.142;24.826;2022-10-31T06:32:51;2.30;99.90
58309;DHT22;44117;57.142;24.826;2022-10-31T06:35:18;2.50;99.90
58309;DHT22;44117;57.142;24.826;2022-10-31T06:37:55;2.50;99.90
58309;DHT22;44117;57.142;24.826;2022-10-31T06:40:22;2.50;99.90
58309;DHT22;44117;57.142;24.826;2022-10-31T06:43:00;2.60;99.90
58309;DHT22;44117;57.142;24.826;2022-10-31T06:45:27;2.60;99.90
58309;DHT22;44117;57.142;24.826;2022-10-31T06:47:55;2.60;99.90
58309;DHT22;44117;57.142;24.826;2022-10-31T06:50:43;2.70;99.90
58309;DHT22;44117;57.142;24.826;2022-10-31T06:53:10;2.70;99.90
58309;DHT22;44117;57.142;24.826;2022-10-31T06:55:38;2.80;99.90
58309;DHT22;44117;57.142;24.826;2022-10-31T06:58:05;2.80;99.90
58309;DHT22;44117;57.142;24.826;2022-10-31T07:00:33;2.90;99.90
58309;DHT22;44117;57.142;24.826;2022-10-31T07:03:02;2.90;99.90
58309;DHT22;44117;57.142;24.826;2022-10-31T07:05:30;3.00;99.90
58309;DHT22;44117;57.142;24.826;2022-10-31T07:08:00;3.10;99.90
58309;DHT22;44117;57.142;24.826;2022-10-31T07:10:30;3.20;99.90
58309;DHT22;44117;57.142;24.826;2022-10-31T07:13:06;3.30;99.90
58309;DHT22;44117;57.142;24.826;2022-10-31T07:15:37;3.40;99.90
58309;DHT22;44117;57.142;24.826;2022-10-31T07:18:06;3.50;99.90
58309;DHT22;44117;57.142;24.826;2022-10-31T07:20:33;3.60;99.90
58309;DHT22;44117;57.142;24.826;2022-10-31T07:23:00;3.70;99.90
58309;DHT22;44117;57.142;24.826;2022-10-31T07:25:28;3.80;99.90
58309;DHT22;44117;57.142;24.826;2022-10-31T07:27:56;4.00;99.90
58309;DHT22;44117;57.142;24.826;2022-10-31T07:30:23;4.10;99.90
58309;DHT22;44117;57.142;24.826;2022-10-31T07:32:51;4.40;99.90
58309;DHT22;44117;57.142;24.826;2022-10-31T07:35:20;4.40;99.90
58309;DHT22;44117;57.142;24.826;2022-10-31T07:37:48;4.50;99.90
58309;DHT22;44117;57.142;24.826;2022-10-31T07:40:16;4.50;99.90
58309;DHT22;44117;57.142;24.826;2022-10-31T07:42:45;4.70;99.90
58309;DHT22;44117;57.142;24.826;2022-10-31T07:45:15;4.70;99.90
58309;DHT22;44117;57.142;24.826;2022-10-31T07:47:47;4.80;99.90
58309;DHT22;44117;57.142;24.826;2022-10-31T07:50:20;4.90;99.90
58309;DHT22;44117;57.142;24.826;2022-10-31T07:52:47;5.00;99.90
58309;DHT22;44117;57.142;24.826;2022-10-31T07:55:15;5.10;99.90
58309;DHT22;44117;57.142;24.826;2022-10-31T07:57:42;5.20;99.90
58309;DHT22;44117;57.142;24.826;2022-10-31T08:00:10;5.30;99.90
58309;DHT22;44117;57.142;24.826;2022-10-31T08:02:37;5.40;99.90
58309;DHT22;44117;57.142;24.826;2022-10-31T08:05:05;5.50;99.90
58309;DHT22;44117;57.142;24.826;2022-10-31T08:07:36;5.60;99.90
58309;DHT22;44117;57.142;24.826;2022-10-31T08:10:05;5.70;99.90
58309;DHT22;44117;57.142;24.826;2022-10-31T08:12:32;5.70;99.90
58309;DHT22;44117;57.142;24.826;2022-10-31T08:14:59;5.80;99.90
58309;DHT22;44117;57.142;24.826;2022-10-31T08:17:26;5.90;99.90
58309;DHT22;44117;57.142;24.826;2022-10-31T08:19:53;6.10;99.90
58309;DHT22;44117;57.142;24.826;2022-10-31T08:22:20;6.30;99.90
58309;DHT22;44117;57.142;24.826;2022-10-31T08:24:47;6.50;99.90
58309;DHT22;44117;57.142;24.826;2022-10-31T08:27:15;6.70;99.90
58309;DHT22;44117;57.142;24.826;2022-10-31T08:29:42;6.90;99.90
58309;DHT22;44117;57.142;24.826;2022-10-31T08:32:09;7.10;99.90
58309;DHT22;44117;57.142;24.826;2022-10-31T08:34:36;7.20;99.90
58309;DHT22;44117;57.142;24.826;2022-10-31T08:37:03;7.30;99.90
58309;DHT22;44117;57.142;24.826;2022-10-31T08:39:30;7.50;99.90
58309;DHT22;44117;57.142;24.826;2022-10-31T08:41:58;7.60;99.90
58309;DHT22;44117;57.142;24.826;2022-10-31T08:44:25;7.80;99.90
58309;DHT22;44117;57.142;24.826;2022-10-31T08:46:52;8.10;99.90
58309;DHT22;44117;57.142;24.826;2022-10-31T08:49:20;8.30;99.90
58309;DHT22;44117;57.142;24.826;2022-10-31T08:51:48;8.60;99.90
58309;DHT22;44117;57.142;24.826;2022-10-31T08:54:15;8.90;99.90
58309;DHT22;44117;57.142;24.826;2022-10-31T08:56:42;9.50;99.90
58309;DHT22;44117;57.142;24.826;2022-10-31T08:59:09;9.70;99.90
58309;DHT22;44117;57.142;24.826;2022-10-31T09:01:36;10.00;99.90
58309;DHT22;44117;57.142;24.826;2022-10-31T09:04:04;10.60;99.90
58309;DHT22;44117;57.142;24.826;2022-10-31T09:06:31;11.00;99.90
58309;DHT22;44117;57.142;24.826;2022-10-31T09:08:58;11.30;99.90
58309;DHT22;44117;57.142;24.826;2022-10-31T09:11:26;11.50;99.90
58309;DHT22;44117;57.142;24.826;2022-10-31T09:13:53;11.60;99.90
58309;DHT22;44117;57.142;24.826;2022-10-31T09:16:20;12.10;99.90
58309;DHT22;44117;57.142;24.826;2022-10-31T09:18:47;12.60;99.60
58309;DHT22;44117;57.142;24.826;2022-10-31T09:21:14;13.00;98.60
58309;DHT22;44117;57.142;24.826;2022-10-31T09:23:41;13.70;96.70
58309;DHT22;44117;57.142;24.826;2022-10-31T09:26:08;14.40;94.80
58309;DHT22;44117;57.142;24.826;2022-10-31T09:28:36;14.40;94.30
58309;DHT22;44117;57.142;24.826;2022-10-31T09:31:03;14.50;93.50
58309;DHT22;44117;57.142;24.826;2022-10-31T09:33:30;14.30;93.80
58309;DHT22;44117;57.142;24.826;2022-10-31T09:35:58;14.60;93.90
58309;DHT22;44117;57.142;24.826;2022-10-31T09:38:25;15.30;91.90
58309;DHT22;44117;57.142;24.826;2022-10-31T09:41:13;14.90;92.30
58309;DHT22;44117;57.142;24.826;2022-10-31T09:46:53;15.40;90.70
58309;DHT22;44117;57.142;24.826;2022-10-31T09:52:41;16.00;90.20
58309;DHT22;44117;57.142;24.826;2022-10-31T09:55:18;16.30;89.90
58309;DHT22;44117;57.142;24.826;2022-10-31T09:57:46;16.10;89.40
58309;DHT22;44117;57.142;24.826;2022-10-31T10:00:18;16.30;89.20
58309;DHT22;44117;57.142;24.826;2022-10-31T10:05:51;16.40;88.90
58309;DHT22;44117;57.142;24.826;2022-10-31T10:08:18;16.20;89.20
58309;DHT22;44117;57.142;24.826;2022-10-31T10:10:55;16.00;90.60
58309;DHT22;44117;57.142;24.826;2022-10-31T10:21:55;17.10;86.60
58309;DHT22;44117;57.142;24.826;2022-10-31T10:27:49;17.60;86.10
58309;DHT22;44117;57.142;24.826;2022-10-31T10:36:05;17.70;86.00
58309;DHT22;44117;57.142;24.826;2022-10-31T10:41:43;17.40;83.80
58309;DHT22;44117;57.142;24.826;2022-10-31T10:44:11;17.50;86.20
58309;DHT22;44117;57.142;24.826;2022-10-31T10:46:43;17.50;85.40
58309;DHT22;44117;57.142;24.826;2022-10-31T10:49:44;18.10;83.80
58309;DHT22;44117;57.142;24.826;2022-10-31T10:58:01;17.90;83.80
58309;DHT22;44117;57.142;24.826;2022-10-31T11:00:40;18.80;82.30
58309;DHT22;44117;57.142;24.826;2022-10-31T11:03:08;18.80;81.00
58309;DHT22;44117;57.142;24.826;2022-10-31T11:05:57;18.70;81.00
58309;DHT22;44117;57.142;24.826;2022-10-31T11:08:34;19.20;80.50
58309;DHT22;44117;57.142;24.826;2022-10-31T11:11:05;18.30;81.90
58309;DHT22;44117;57.142;24.826;2022-10-31T11:13:35;17.80;81.30
58309;DHT22;44117;57.142;24.826;2022-10-31T11:16:06;17.80;83.10
58309;DHT22;44117;57.142;24.826;2022-10-31T11:18:45;18.50;80.70
58309;DHT22;44117;57.142;24.826;2022-10-31T11:21:28;18.40;82.50
58309;DHT22;44117;57.142;24.826;2022-10-31T11:26:38;17.40;83.70
58309;DHT22;44117;57.142;24.826;2022-10-31T11:29:25;17.80;81.90
58309;DHT22;44117;57.142;24.826;2022-10-31T11:31:56;18.20;82.50
58309;DHT22;44117;57.142;24.826;2022-10-31T11:34:33;18.10;82.50
58309;DHT22;44117;57.142;24.826;2022-10-31T11:37:17;18.00;82.20
58309;DHT22;44117;57.142;24.826;2022-10-31T11:39:49;19.80;79.50
58309;DHT22;44117;57.142;24.826;2022-10-31T11:42:29;20.70;76.20
58309;DHT22;44117;57.142;24.826;2022-10-31T11:44:57;21.30;76.20
58309;DHT22;44117;57.142;24.826;2022-10-31T11:47:30;21.90;73.90
58309;DHT22;44117;57.142;24.826;2022-10-31T11:50:02;22.20;72.60
58309;DHT22;44117;57.142;24.826;2022-10-31T11:52:31;21.40;71.00
58309;DHT22;44117;57.142;24.826;2022-10-31T11:55:02;19.90;73.80
58309;DHT22;44117;57.142;24.826;2022-10-31T11:57:50;19.80;73.60
58309;DHT22;44117;57.142;24.826;2022-10-31T12:00:32;19.90;75.10
58309;DHT22;44117;57.142;24.826;2022-10-31T12:08:35;20.20;74.10
58309;DHT22;44117;57.142;24.826;2022-10-31T12:16:36;21.30;72.30
58309;DHT22;44117;57.142;24.826;2022-10-31T12:19:46;21.70;72.10
58309;DHT22;44117;57.142;24.826;2022-10-31T12:30:23;22.80;69.70
58309;DHT22;44117;57.142;24.826;2022-10-31T12:44:08;21.00;71.20
58309;DHT22;44117;57.142;24.826;2022-10-31T12:49:48;20.30;71.40
58309;DHT22;44117;57.142;24.826;2022-10-31T12:57:58;19.80;73.20
58309;DHT22;44117;57.142;24.826;2022-10-31T13:00:29;18.40;75.40
58309;DHT22;44117;57.142;24.826;2022-10-31T13:05:40;19.80;74.10
58309;DHT22;44117;57.142;24.826;2022-10-31T13:10:49;19.10;74.10
58309;DHT22;44117;57.142;24.826;2022-10-31T13:13:26;18.80;75.90
58309;DHT22;44117;57.142;24.826;2022-10-31T13:16:04;18.30;75.30
58309;DHT22;44117;57.142;24.826;2022-10-31T13:18:52;16.50;78.80
58309;DHT22;44117;57.142;24.826;2022-10-31T13:24:13;13.30;87.70
58309;DHT22;44117;57.142;24.826;2022-10-31T13:26:50;12.70;90.30
58309;DHT22;44117;57.142;24.826;2022-10-31T13:29:23;12.40;91.30
58309;DHT22;44117;57.142;24.826;2022-10-31T13:31:57;12.40;91.30
58309;DHT22;44117;57.142;24.826;2022-10-31T13:34:51;12.40;91.70
58309;DHT22;44117;57.142;24.826;2022-10-31T13:37:39;12.50;92.10
58309;DHT22;44117;57.142;24.826;2022-10-31T13:40:29;12.50;92.30
58309;DHT22;44117;57.142;24.826;2022-10-31T13:45:48;13.70;91.30
58309;DHT22;44117;57.142;24.826;2022-10-31T13:50:56;13.80;90.50
58309;DHT22;44117;57.142;24.826;2022-10-31T14:04:28;12.00;94.00
58309;DHT22;44117;57.142;24.826;2022-10-31T14:07:09;11.70;94.10
58309;DHT22;44117;57.142;24.826;2022-10-31T14:14:57;11.10;96.10
58309;DHT22;44117;57.142;24.826;2022-10-31T14:17:28;11.00;96.90
58309;DHT22;44117;57.142;24.826;2022-10-31T14:20:21;10.80;97.60
58309;DHT22;44117;57.142;24.826;2022-10-31T14:22:49;10.70;98.10
58309;DHT22;44117;57.142;24.826;2022-10-31T14:25:32;10.60;98.60
58309;DHT22;44117;57.142;24.826;2022-10-31T14:28:02;10.40;99.50
58309;DHT22;44117;57.142;24.826;2022-10-31T14:30:31;10.30;99.60
58309;DHT22;44117;57.142;24.826;2022-10-31T14:33:02;10.10;99.90
58309;DHT22;44117;57.142;24.826;2022-10-31T14:35:51;10.00;99.90
58309;DHT22;44117;57.142;24.826;2022-10-31T14:50:21;9.30;99.90
58309;DHT22;44117;57.142;24.826;2022-10-31T14:52:52;9.10;99.90
58309;DHT22;44117;57.142;24.826;2022-10-31T14:55:21;8.90;99.90
58309;DHT22;44117;57.142;24.826;2022-10-31T14:57:59;8.90;99.90
58309;DHT22;44117;57.142;24.826;2022-10-31T15:00:28;8.80;99.90
58309;DHT22;44117;57.142;24.826;2022-10-31T15:05:30;8.60;99.90
58309;DHT22;44117;57.142;24.826;2022-10-31T15:07:59;8.50;99.90
58309;DHT22;44117;57.142;24.826;2022-10-31T15:10:35;8.40;99.90
58309;DHT22;44117;57.142;24.826;2022-10-31T15:13:17;8.40;99.90
58309;DHT22;44117;57.142;24.826;2022-10-31T15:15:45;8.30;99.90
58309;DHT22;44117;57.142;24.826;2022-10-31T15:18:21;8.30;99.90
58309;DHT22;44117;57.142;24.826;2022-10-31T15:20:51;8.20;99.90
58309;DHT22;44117;57.142;24.826;2022-10-31T15:23:25;8.10;99.90
58309;DHT22;44117;57.142;24.826;2022-10-31T15:26:00;7.90;99.90
58309;DHT22;44117;57.142;24.826;2022-10-31T15:28:28;7.90;99.90
58309;DHT22;44117;57.142;24.826;2022-10-31T15:31:00;7.80;99.90
58309;DHT22;44117;57.142;24.826;2022-10-31T15:33:39;7.70;99.90
58309;DHT22;44117;57.142;24.826;2022-10-31T15:36:21;7.60;99.90
58309;DHT22;44117;57.142;24.826;2022-10-31T15:38:57;7.50;99.90
58309;DHT22;44117;57.142;24.826;2022-10-31T15:47:06;7.40;99.90
58309;DHT22;44117;57.142;24.826;2022-10-31T15:49:53;7.40;99.90
58309;DHT22;44117;57.142;24.826;2022-10-31T15:52:29;7.20;99.90
58309;DHT22;44117;57.142;24.826;2022-10-31T15:55:27;7.00;99.90
58309;DHT22;44117;57.142;24.826;2022-10-31T15:58:03;6.80;99.90
58309;DHT22;44117;57.142;24.826;2022-10-31T16:00:34;6.80;99.90
58309;DHT22;44117;57.142;24.826;2022-10-31T16:05:46;6.70;99.90
58309;DHT22;44117;57.142;24.826;2022-10-31T16:13:40;6.70;99.90
58309;DHT22;44117;57.142;24.826;2022-10-31T16:16:13;6.60;99.90
58309;DHT22;44117;57.142;24.826;2022-10-31T16:19:02;6.60;99.90
58309;DHT22;44117;57.142;24.826;2022-10-31T16:21:37;6.60;99.90
58309;DHT22;44117;57.142;24.826;2022-10-31T16:24:25;6.60;99.90
58309;DHT22;44117;57.142;24.826;2022-10-31T16:26:59;6.50;99.90
58309;DHT22;44117;57.142;24.826;2022-10-31T16:29:41;6.50;99.90
58309;DHT22;44117;57.142;24.826;2022-10-31T16:32:50;6.40;99.90
58309;DHT22;44117;57.142;24.826;2022-10-31T16:35:26;6.50;99.90
58309;DHT22;44117;57.142;24.826;2022-10-31T16:37:54;6.40;99.90
58309;DHT22;44117;57.142;24.826;2022-10-31T16:40:22;6.50;99.90
58309;DHT22;44117;57.142;24.826;2022-10-31T16:42:49;6.50;99.90
58309;DHT22;44117;57.142;24.826;2022-10-31T16:45:22;6.50;99.90
58309;DHT22;44117;57.142;24.826;2022-10-31T16:47:50;6.40;99.90
58309;DHT22;44117;57.142;24.826;2022-10-31T16:50:23;6.40;99.90
58309;DHT22;44117;57.142;24.826;2022-10-31T16:52:52;6.40;99.90
58309;DHT22;44117;57.142;24.826;2022-10-31T16:55:44;6.40;99.90
58309;DHT22;44117;57.142;24.826;2022-10-31T16:58:23;6.30;99.90
58309;DHT22;44117;57.142;24.826;2022-10-31T17:00:51;6.30;99.90
58309;DHT22;44117;57.142;24.826;2022-10-31T17:03:20;6.20;99.90
58309;DHT22;44117;57.142;24.826;2022-10-31T17:05:47;6.30;99.90
58309;DHT22;44117;57.142;24.826;2022-10-31T17:08:15;6.30;99.90
58309;DHT22;44117;57.142;24.826;2022-10-31T17:10:43;6.40;99.90
58309;DHT22;44117;57.142;24.826;2022-10-31T17:13:19;6.50;99.90
58309;DHT22;44117;57.142;24.826;2022-10-31T17:15:50;6.40;99.90
58309;DHT22;44117;57.142;24.826;2022-10-31T17:18:18;6.50;99.90
58309;DHT22;44117;57.142;24.826;2022-10-31T17:21:00;6.40;99.90
58309;DHT22;44117;57.142;24.826;2022-10-31T17:23:29;6.50;99.90
58309;DHT22;44117;57.142;24.826;2022-10-31T17:25:56;6.60;99.90
58309;DHT22;44117;57.142;24.826;2022-10-31T17:28:24;6.70;99.90
58309;DHT22;44117;57.142;24.826;2022-10-31T17:30:55;6.80;99.90
58309;DHT22;44117;57.142;24.826;2022-10-31T17:33:24;6.90;99.90
58309;DHT22;44117;57.142;24.826;2022-10-31T17:35:51;6.90;99.90
58309;DHT22;44117;57.142;24.826;2022-10-31T17:38:19;7.00;99.90
58309;DHT22;44117;57.142;24.826;2022-10-31T17:40:46;7.00;99.90
58309;DHT22;44117;57.142;24.826;2022-10-31T17:43:18;7.00;99.90
58309;DHT22;44117;57.142;24.826;2022-10-31T17:45:45;7.10;99.90
58309;DHT22;44117;57.142;24.826;2022-10-31T17:48:13;7.10;99.90
58309;DHT22;44117;57.142;24.826;2022-10-31T17:50:40;7.20;99.90
58309;DHT22;44117;57.142;24.826;2022-10-31T17:53:07;7.30;99.90
58309;DHT22;44117;57.142;24.826;2022-10-31T17:55:35;7.30;99.90
58309;DHT22;44117;57.142;24.826;2022-10-31T17:58:03;7.30;99.90
58309;DHT22;44117;57.142;24.826;2022-10-31T18:00:31;7.20;99.90
58309;DHT22;44117;57.142;24.826;2022-10-31T18:03:00;7.30;99.90
58309;DHT22;44117;57.142;24.826;2022-10-31T18:05:28;7.30;99.90
58309;DHT22;44117;57.142;24.826;2022-10-31T18:07:55;7.30;99.90
58309;DHT22;44117;57.142;24.826;2022-10-31T18:10:29;7.30;99.90
58309;DHT22;44117;57.142;24.826;2022-10-31T18:12:56;7.30;99.90
58309;DHT22;44117;57.142;24.826;2022-10-31T18:15:23;7.40;99.90
58309;DHT22;44117;57.142;24.826;2022-10-31T18:17:51;7.40;99.90
58309;DHT22;44117;57.142;24.826;2022-10-31T18:20:18;7.40;99.90
58309;DHT22;44117;57.142;24.826;2022-10-31T18:22:45;7.50;99.90
58309;DHT22;44117;57.142;24.826;2022-10-31T18:25:12;7.50;99.90
58309;DHT22;44117;57.142;24.826;2022-10-31T18:27:39;7.50;99.90
58309;DHT22;44117;57.142;24.826;2022-10-31T18:30:07;7.50;99.90